aviador You're here:

HEMM Decoded Metar

MERSA-MATRUH in EGYPT
Report Time2018-07-22 02:00:00
UTC Time2018-07-22 02:44:55
Flight Rules vfr VFR
Wind310° at 07 kt
W.Decomp.*RWY 33: 6.4 kt HW 2.7 kt LCW
RWY 24: 2.7 kt HW 6.4 kt RCW
W.Rank310° ranks 8
Current wind is below 310° avg. (11.7)
Visibility9999 m
Phenomena:N/A
Clouds:Scattered 025 Hf
Expected CloudBase > 800 ft AGL from Temp-Dew spread
CeilingNone
Temp25°C (ISA +10)
Dew Point23°C (89% RH)
QNH1011 hPa
Density Alt1,716 ft
Elevation98 ft
Report Wrong Elevation
Raw Report
HEMM 220200Z 31007KT 9999 SCT025 25/23 Q1011 NOSIG=

Extra information for HEMM:More info

Metar Taf Metar & Taf Last 4 Metars F.Rules Stats Wind Profile Meteogram Temp Stats Airport Information Weather charts Add Link Nearby VenuesMetar ALERT Operation Metar Decoded Social comments